Time;durP1;ratioP1;P1;durP2;ratioP2;P2;SDS_P1;SDS_P2;PMS_P1;PMS_P2;Temp;Humidity;BMP_temperature;BMP_pressure;BME280_temperature;BME280_humidity;BME280_pressure;Samples;Min_cycle;Max_cycle;Signal;HPM_P1;HPM_P2
2023/09/10 00:00:49;;;;;;;24.98;19.50;;;19.20;99.90;;;;;;5033026;28;20057;-55
2023/09/10 00:03:15;;;;;;;29.80;19.83;;;19.10;99.90;;;;;;5028288;28;20040;-57
2023/09/10 00:05:41;;;;;;;27.55;20.48;;;19.20;99.90;;;;;;5034203;28;20041;-56
2023/09/10 00:08:06;;;;;;;28.80;20.23;;;19.20;99.90;;;;;;5032070;28;20483;-55
2023/09/10 00:10:32;;;;;;;29.80;21.40;;;19.10;99.90;;;;;;5032311;28;20099;-55
2023/09/10 00:12:57;;;;;;;32.72;21.45;;;19.10;99.90;;;;;;5029816;28;20241;-57
2023/09/10 00:15:23;;;;;;;29.48;22.17;;;19.10;99.90;;;;;;5029789;28;20045;-56
2023/09/10 00:17:49;;;;;;;28.88;22.80;;;19.00;99.90;;;;;;5024452;28;20066;-56
2023/09/10 00:20:14;;;;;;;32.33;24.33;;;19.00;99.90;;;;;;5031104;28;20060;-57
2023/09/10 00:22:42;;;;;;;33.45;24.33;;;18.90;99.90;;;;;;5027845;28;20404;-56
2023/09/10 00:25:09;;;;;;;31.92;25.48;;;19.10;99.90;;;;;;5027631;28;20034;-55
2023/09/10 00:27:34;;;;;;;29.83;24.70;;;19.10;99.90;;;;;;5025500;28;20053;-57
2023/09/10 00:30:00;;;;;;;32.10;23.33;;;19.10;99.90;;;;;;5028080;28;20059;-56
2023/09/10 00:32:26;;;;;;;34.33;24.17;;;19.00;99.90;;;;;;5027975;28;20112;-56
2023/09/10 00:34:51;;;;;;;32.72;24.95;;;19.00;99.90;;;;;;5027566;28;20041;-56
2023/09/10 00:37:17;;;;;;;36.30;26.35;;;19.00;99.90;;;;;;5024536;28;21347;-56
2023/09/10 00:39:42;;;;;;;31.65;24.63;;;19.10;99.90;;;;;;5024398;28;20397;-56
2023/09/10 00:42:09;;;;;;;27.83;23.17;;;18.90;99.90;;;;;;5026927;28;20029;-55
2023/09/10 00:44:36;;;;;;;32.95;24.92;;;18.90;99.90;;;;;;5024540;28;20334;-56
2023/09/10 00:47:03;;;;;;;31.90;25.33;;;19.00;99.90;;;;;;5027105;28;20030;-56
2023/09/10 00:49:30;;;;;;;32.78;24.08;;;19.10;99.90;;;;;;5026793;28;20037;-56
2023/09/10 00:51:57;;;;;;;29.42;23.15;;;19.00;99.90;;;;;;5027519;28;20037;-57
2023/09/10 00:54:24;;;;;;;27.80;21.77;;;19.00;99.90;;;;;;5028168;28;20481;-55
2023/09/10 00:56:51;;;;;;;33.25;23.08;;;19.00;99.90;;;;;;5034636;28;20112;-57
2023/09/10 00:59:16;;;;;;;29.15;22.55;;;18.90;99.90;;;;;;5022562;28;20449;-57
2023/09/10 01:01:42;;;;;;;32.38;21.75;;;18.90;99.90;;;;;;5028560;28;20034;-57
2023/09/10 01:04:08;;;;;;;26.02;21.10;;;18.90;99.90;;;;;;5025786;28;20520;-56
2023/09/10 01:06:34;;;;;;;29.92;21.05;;;18.80;99.90;;;;;;5025573;28;20199;-57
2023/09/10 01:09:00;;;;;;;28.00;21.38;;;18.70;99.90;;;;;;5033512;28;20120;-56
2023/09/10 01:11:56;;;;;;;24.52;20.02;;;18.70;99.90;;;;;;5021254;28;20191;-56
2023/09/10 01:14:25;;;;;;;28.00;21.13;;;18.70;99.90;;;;;;5026643;28;20500;-55
2023/09/10 01:17:15;;;;;;;29.50;21.75;;;18.70;99.90;;;;;;5030057;28;20037;-56
2023/09/10 01:19:52;;;;;;;25.20;21.60;;;18.80;99.90;;;;;;5026699;28;20302;-57
2023/09/10 01:22:43;;;;;;;27.75;20.55;;;18.70;99.90;;;;;;5020105;28;20453;-57
2023/09/10 01:25:09;;;;;;;26.77;19.77;;;18.60;99.90;;;;;;5023798;28;20521;-57
2023/09/10 01:27:35;;;;;;;28.25;21.60;;;18.60;99.90;;;;;;5028192;28;20041;-55
2023/09/10 01:30:01;;;;;;;26.23;22.05;;;18.70;99.90;;;;;;5030192;28;20042;-57
2023/09/10 01:32:31;;;;;;;26.40;21.75;;;18.70;99.90;;;;;;5029032;28;20125;-56
2023/09/10 01:35:13;;;;;;;30.13;21.23;;;18.70;99.90;;;;;;5019508;28;20047;-56
2023/09/10 01:38:10;;;;;;;25.40;20.33;;;18.70;99.90;;;;;;5036975;28;20060;-57
2023/09/10 01:40:42;;;;;;;26.42;19.58;;;18.50;99.90;;;;;;4998289;28;20096;-57
2023/09/10 01:43:09;;;;;;;23.65;19.85;;;18.40;99.90;;;;;;5003542;28;20133;-57
2023/09/10 01:45:35;;;;;;;25.20;19.88;;;18.30;99.90;;;;;;5004248;28;20045;-57
2023/09/10 01:48:02;;;;;;;28.77;21.35;;;18.40;99.90;;;;;;5001406;28;20094;-57
2023/09/10 01:50:30;;;;;;;28.73;21.40;;;18.50;99.90;;;;;;5001004;28;20124;-57
2023/09/10 01:52:59;;;;;;;30.15;22.15;;;18.50;99.90;;;;;;5007164;28;20603;-55
2023/09/10 01:55:25;;;;;;;26.92;20.77;;;18.50;99.90;;;;;;5003453;28;20061;-56
2023/09/10 01:57:53;;;;;;;31.27;23.27;;;18.50;99.90;;;;;;5012533;28;20042;-56
2023/09/10 02:00:19;;;;;;;31.42;23.55;;;18.60;99.90;;;;;;5004929;28;20056;-56
2023/09/10 02:02:44;;;;;;;30.50;23.08;;;18.60;99.90;;;;;;5012231;28;20049;-58
2023/09/10 02:05:10;;;;;;;30.95;23.33;;;18.50;99.90;;;;;;5005346;28;20038;-56
2023/09/10 02:07:35;;;;;;;31.30;23.63;;;18.50;99.90;;;;;;5006027;28;20029;-58
2023/09/10 02:10:02;;;;;;;28.92;22.95;;;18.50;99.90;;;;;;5009826;28;20109;-57
2023/09/10 02:12:27;;;;;;;30.67;22.85;;;18.40;99.90;;;;;;5011092;28;20045;-56
2023/09/10 02:14:53;;;;;;;30.45;22.10;;;18.40;99.90;;;;;;5010836;28;20236;-57
2023/09/10 02:17:18;;;;;;;32.97;23.00;;;18.40;99.90;;;;;;5006735;28;20033;-57
2023/09/10 02:19:44;;;;;;;28.75;22.30;;;18.50;99.90;;;;;;5021888;28;20107;-57
2023/09/10 02:22:09;;;;;;;31.63;23.13;;;18.50;99.90;;;;;;5011767;28;20381;-57
2023/09/10 02:24:35;;;;;;;27.00;21.90;;;18.60;99.90;;;;;;5011596;28;20084;-57
2023/09/10 02:27:00;;;;;;;27.45;20.70;;;18.50;99.90;;;;;;5018633;28;20033;-56
2023/09/10 02:29:26;;;;;;;27.73;19.58;;;18.50;99.90;;;;;;5005954;28;20033;-57
2023/09/10 02:31:51;;;;;;;23.70;19.05;;;18.40;99.90;;;;;;5006503;28;20037;-56
2023/09/10 02:34:17;;;;;;;22.98;19.30;;;18.30;99.90;;;;;;5007526;28;20040;-57
2023/09/10 02:36:43;;;;;;;24.77;19.75;;;18.20;99.90;;;;;;5017992;28;20029;-57
2023/09/10 02:39:08;;;;;;;28.15;19.42;;;18.30;99.90;;;;;;5018012;28;20085;-57
2023/09/10 02:41:34;;;;;;;25.35;19.27;;;18.20;99.90;;;;;;5008883;28;20100;-56
2023/09/10 02:43:59;;;;;;;23.77;19.05;;;18.10;99.90;;;;;;5008528;28;20135;-57
2023/09/10 02:46:27;;;;;;;27.98;20.17;;;18.10;99.90;;;;;;5008962;28;20034;-57
2023/09/10 02:48:52;;;;;;;27.23;20.63;;;18.00;99.90;;;;;;5008212;28;20041;-56
2023/09/10 02:51:18;;;;;;;30.55;22.98;;;18.10;99.90;;;;;;5003971;28;20112;-56
2023/09/10 02:53:43;;;;;;;31.08;21.95;;;18.20;99.90;;;;;;5003353;28;20040;-56
2023/09/10 02:56:09;;;;;;;28.73;21.67;;;18.20;99.90;;;;;;5006082;28;20046;-55
2023/09/10 02:58:35;;;;;;;33.88;23.73;;;18.10;99.90;;;;;;5005068;28;20108;-56
2023/09/10 03:01:04;;;;;;;30.73;23.95;;;18.20;99.90;;;;;;5007165;28;20493;-56
2023/09/10 03:03:31;;;;;;;30.95;23.80;;;18.30;99.90;;;;;;5056002;28;20030;-56
2023/09/10 03:05:57;;;;;;;30.70;22.42;;;18.20;99.90;;;;;;5028903;28;20063;-55
2023/09/10 03:08:22;;;;;;;30.38;23.35;;;18.10;99.90;;;;;;5025261;28;20038;-56
2023/09/10 03:10:48;;;;;;;29.35;22.38;;;18.00;99.90;;;;;;5023946;28;20089;-56
2023/09/10 03:13:13;;;;;;;27.52;23.60;;;18.10;99.90;;;;;;5025010;28;20037;-55
2023/09/10 03:15:39;;;;;;;30.17;24.60;;;18.10;99.90;;;;;;5030887;28;20037;-57
2023/09/10 03:18:05;;;;;;;33.65;25.05;;;18.20;99.90;;;;;;5026783;28;20044;-56
2023/09/10 03:20:31;;;;;;;35.72;25.00;;;18.20;99.90;;;;;;5026115;28;20110;-56
2023/09/10 03:22:59;;;;;;;29.15;22.83;;;18.20;99.90;;;;;;5024391;28;20072;-56
2023/09/10 03:25:25;;;;;;;31.73;24.25;;;18.10;99.90;;;;;;5023548;28;20038;-56
2023/09/10 03:27:50;;;;;;;28.50;21.95;;;18.20;99.90;;;;;;5025640;28;20103;-57
2023/09/10 03:30:17;;;;;;;24.08;20.17;;;18.10;99.90;;;;;;5024878;28;20038;-55
2023/09/10 03:32:43;;;;;;;32.40;22.05;;;18.10;99.90;;;;;;5028002;28;20385;-57
2023/09/10 03:35:10;;;;;;;27.83;21.85;;;18.10;99.90;;;;;;5029079;28;20037;-57
2023/09/10 03:37:36;;;;;;;29.50;21.67;;;18.10;99.90;;;;;;5026280;28;20397;-57
2023/09/10 03:40:04;;;;;;;25.92;21.02;;;18.10;99.90;;;;;;5024341;28;20048;-54
2023/09/10 03:42:30;;;;;;;27.88;19.80;;;18.10;99.90;;;;;;5024854;28;20103;-56
2023/09/10 03:44:55;;;;;;;27.02;20.23;;;18.10;99.90;;;;;;5024655;28;20037;-56
2023/09/10 03:47:21;;;;;;;28.25;20.67;;;18.10;99.90;;;;;;5025900;28;20118;-57
2023/09/10 03:49:46;;;;;;;29.00;20.60;;;18.00;99.90;;;;;;5024363;28;20030;-57
2023/09/10 03:52:17;;;;;;;27.20;21.30;;;18.10;99.90;;;;;;5026915;28;20141;-56
2023/09/10 03:54:42;;;;;;;28.98;21.60;;;18.00;99.90;;;;;;5023270;28;20034;-57
2023/09/10 03:57:08;;;;;;;28.13;22.10;;;17.80;99.90;;;;;;5022858;28;20420;-57
2023/09/10 03:59:34;;;;;;;28.33;22.15;;;17.90;99.90;;;;;;5007921;28;20026;-56
2023/09/10 04:01:59;;;;;;;27.40;21.73;;;17.90;99.90;;;;;;5007336;28;20041;-58
2023/09/10 04:04:25;;;;;;;28.83;23.05;;;17.80;99.90;;;;;;5015476;28;20033;-57
2023/09/10 04:06:51;;;;;;;32.80;20.88;;;17.90;99.90;;;;;;5006465;28;20030;-56
2023/09/10 04:09:17;;;;;;;25.13;21.10;;;17.90;99.90;;;;;;5010292;28;20052;-57
2023/09/10 04:11:42;;;;;;;29.85;21.15;;;18.10;99.90;;;;;;5005330;28;20311;-57
2023/09/10 04:14:08;;;;;;;28.63;22.85;;;18.10;99.90;;;;;;5006839;28;20184;-56
2023/09/10 04:16:33;;;;;;;28.10;22.10;;;17.90;99.90;;;;;;5011051;28;20057;-57
2023/09/10 04:18:59;;;;;;;34.13;23.77;;;17.80;99.90;;;;;;5011671;28;20143;-56
2023/09/10 04:21:25;;;;;;;29.75;23.15;;;17.80;99.90;;;;;;5010075;28;20038;-56
2023/09/10 04:23:50;;;;;;;27.45;22.50;;;17.90;99.90;;;;;;5003866;28;20050;-56
2023/09/10 04:26:16;;;;;;;30.50;24.17;;;17.90;99.90;;;;;;5009286;28;20038;-57
2023/09/10 04:28:42;;;;;;;33.10;23.92;;;17.80;99.90;;;;;;5010184;28;20448;-58
2023/09/10 04:31:16;;;;;;;37.85;24.15;;;17.90;99.90;;;;;;5003748;28;20045;-57
2023/09/10 04:33:42;;;;;;;33.17;25.67;;;17.80;99.90;;;;;;5005847;28;20459;-57
2023/09/10 04:36:08;;;;;;;34.33;26.30;;;17.90;99.90;;;;;;5004607;28;20061;-56
2023/09/10 04:38:34;;;;;;;38.30;27.77;;;17.80;99.90;;;;;;5009704;28;20042;-56
2023/09/10 04:40:59;;;;;;;35.55;28.33;;;17.70;99.90;;;;;;5009099;28;21019;-57
2023/09/10 04:43:25;;;;;;;38.83;28.40;;;17.70;99.90;;;;;;5004975;28;20030;-57
2023/09/10 04:45:51;;;;;;;35.45;28.33;;;17.70;99.90;;;;;;5003617;28;20536;-57
2023/09/10 04:48:17;;;;;;;35.65;28.15;;;17.80;99.90;;;;;;5013214;28;20041;-56
2023/09/10 04:50:44;;;;;;;41.10;30.70;;;17.70;99.90;;;;;;5010661;28;20060;-56
2023/09/10 04:53:10;;;;;;;41.15;31.38;;;17.80;99.90;;;;;;5011380;28;20034;-57
2023/09/10 04:55:36;;;;;;;43.83;32.08;;;17.80;99.90;;;;;;5017803;28;20431;-57
2023/09/10 04:58:02;;;;;;;38.28;29.17;;;17.80;99.90;;;;;;5013391;28;20050;-55
2023/09/10 05:00:27;;;;;;;38.35;30.58;;;17.70;99.90;;;;;;5008684;28;20516;-56
2023/09/10 05:02:53;;;;;;;39.17;30.95;;;17.70;99.90;;;;;;5012172;28;20026;-57
2023/09/10 05:05:19;;;;;;;39.03;29.40;;;17.70;99.90;;;;;;5016543;28;20183;-57
2023/09/10 05:07:50;;;;;;;40.85;30.75;;;17.80;99.90;;;;;;5008778;28;20543;-56
2023/09/10 05:10:16;;;;;;;39.78;31.83;;;17.80;99.90;;;;;;5025014;28;20037;-57
2023/09/10 05:12:42;;;;;;;47.53;31.67;;;17.80;99.90;;;;;;5037230;28;20424;-55
2023/09/10 05:15:10;;;;;;;39.47;30.73;;;17.80;99.90;;;;;;5027603;28;20041;-58
2023/09/10 05:17:36;;;;;;;39.22;29.95;;;17.70;99.90;;;;;;5036471;28;20045;-56
2023/09/10 05:20:03;;;;;;;38.33;29.67;;;17.70;99.90;;;;;;5032907;28;20661;-56
2023/09/10 05:22:29;;;;;;;36.20;28.40;;;17.80;99.90;;;;;;5023738;28;20049;-56
2023/09/10 05:24:54;;;;;;;37.92;27.52;;;17.80;99.90;;;;;;5025428;28;20045;-56
2023/09/10 05:27:20;;;;;;;37.53;28.00;;;17.80;99.90;;;;;;5032452;28;20361;-57
2023/09/10 05:29:46;;;;;;;33.30;25.80;;;17.70;99.90;;;;;;5026731;28;20025;-57
2023/09/10 05:32:11;;;;;;;34.20;24.85;;;17.70;99.90;;;;;;5023157;28;20037;-57
2023/09/10 05:34:37;;;;;;;40.58;28.65;;;17.70;99.90;;;;;;5031280;28;20048;-56
2023/09/10 05:37:03;;;;;;;39.45;27.27;;;17.80;99.90;;;;;;5034939;28;20567;-57
2023/09/10 05:39:29;;;;;;;32.65;24.52;;;17.80;99.90;;;;;;5034263;28;20043;-56
2023/09/10 05:41:54;;;;;;;36.58;25.35;;;17.80;99.90;;;;;;5029533;28;20021;-56
2023/09/10 05:44:20;;;;;;;29.40;24.85;;;17.80;99.90;;;;;;5026713;28;20033;-57
2023/09/10 05:46:46;;;;;;;32.15;25.80;;;17.90;99.90;;;;;;5029130;28;20131;-56
2023/09/10 05:49:12;;;;;;;35.17;25.65;;;17.90;99.90;;;;;;5037763;28;20493;-57
2023/09/10 05:51:38;;;;;;;34.53;26.02;;;17.90;99.90;;;;;;5032262;28;20487;-56
2023/09/10 05:54:03;;;;;;;34.83;26.02;;;17.90;99.90;;;;;;5008743;28;20045;-57
2023/09/10 05:56:29;;;;;;;30.92;24.25;;;18.00;99.90;;;;;;5012156;28;20132;-57
2023/09/10 05:58:55;;;;;;;30.73;25.05;;;18.00;99.90;;;;;;5012958;28;20060;-56
2023/09/10 06:01:20;;;;;;;32.22;25.80;;;18.10;99.90;;;;;;5008826;28;20042;-57
2023/09/10 06:03:46;;;;;;;29.58;24.98;;;18.20;99.90;;;;;;5019819;28;20038;-56
2023/09/10 06:06:12;;;;;;;36.28;27.55;;;18.20;99.90;;;;;;5011908;28;20069;-56
2023/09/10 06:08:37;;;;;;;35.78;26.63;;;18.20;99.90;;;;;;5008494;28;20042;-56
2023/09/10 06:11:03;;;;;;;34.50;26.85;;;18.30;99.90;;;;;;5000058;28;20030;-57
2023/09/10 06:13:30;;;;;;;33.63;26.75;;;18.30;99.90;;;;;;5010866;28;20022;-56
2023/09/10 06:15:56;;;;;;;35.50;27.98;;;18.40;99.90;;;;;;5016249;28;20084;-56
2023/09/10 06:18:22;;;;;;;36.05;27.83;;;18.50;99.90;;;;;;5006326;28;20506;-58
2023/09/10 06:20:48;;;;;;;38.65;29.25;;;18.60;99.90;;;;;;5016183;28;20135;-56
2023/09/10 06:23:13;;;;;;;38.88;31.42;;;18.70;99.90;;;;;;5005611;28;20481;-57
2023/09/10 06:25:39;;;;;;;37.47;30.42;;;18.80;99.90;;;;;;5012348;28;20111;-56
2023/09/10 06:28:05;;;;;;;38.95;30.50;;;18.90;99.90;;;;;;5008980;28;20742;-57
2023/09/10 06:30:31;;;;;;;40.05;29.63;;;18.90;99.90;;;;;;5021498;28;20401;-57
2023/09/10 06:32:57;;;;;;;36.65;28.70;;;19.00;99.90;;;;;;5026402;28;20044;-57
2023/09/10 06:35:22;;;;;;;40.17;30.80;;;19.00;99.90;;;;;;5027475;28;20038;-57
2023/09/10 06:37:48;;;;;;;47.80;34.80;;;19.10;99.90;;;;;;5027636;28;20132;-56
2023/09/10 06:40:15;;;;;;;52.88;38.47;;;19.20;99.90;;;;;;5022237;28;20492;-56
2023/09/10 06:42:40;;;;;;;46.13;34.47;;;19.30;99.90;;;;;;5028406;28;20033;-55
2023/09/10 06:45:06;;;;;;;44.95;32.90;;;19.40;99.90;;;;;;5025247;28;20042;-58
2023/09/10 06:47:32;;;;;;;48.60;33.60;;;19.50;99.90;;;;;;5033966;28;20172;-57
2023/09/10 06:49:57;;;;;;;52.95;33.42;;;19.60;99.90;;;;;;5026663;28;20399;-56
2023/09/10 06:52:23;;;;;;;50.05;33.95;;;19.70;99.90;;;;;;5027723;28;20065;-56
2023/09/10 06:54:49;;;;;;;42.90;31.48;;;19.90;99.90;;;;;;5026309;28;20547;-57
2023/09/10 06:57:15;;;;;;;71.63;40.85;;;20.00;99.90;;;;;;5031228;28;20433;-57
2023/09/10 06:59:40;;;;;;;39.85;31.77;;;20.20;99.90;;;;;;5025364;28;20021;-57
2023/09/10 07:02:06;;;;;;;51.28;32.75;;;20.20;99.90;;;;;;5024655;28;20416;-56
2023/09/10 07:04:32;;;;;;;49.95;32.25;;;20.30;99.90;;;;;;5025131;28;20357;-56
2023/09/10 07:06:58;;;;;;;45.22;31.27;;;20.50;99.90;;;;;;5021887;28;20568;-57
2023/09/10 07:09:24;;;;;;;44.85;28.77;;;20.50;99.90;;;;;;5018463;28;20243;-57
2023/09/10 07:11:53;;;;;;;46.45;26.83;;;20.50;99.90;;;;;;5027887;28;20037;-57
2023/09/10 07:14:20;;;;;;;43.92;26.42;;;20.60;99.90;;;;;;5022896;28;20042;-56
2023/09/10 07:16:47;;;;;;;41.90;25.73;;;20.60;99.90;;;;;;5021609;28;20120;-56
2023/09/10 07:19:12;;;;;;;37.67;25.02;;;20.60;99.90;;;;;;5026762;28;20076;-58
2023/09/10 07:21:38;;;;;;;42.50;24.40;;;20.70;99.90;;;;;;5024880;28;20090;-57
2023/09/10 07:24:06;;;;;;;38.40;25.27;;;20.80;99.90;;;;;;5028013;28;20048;-57
2023/09/10 07:26:39;;;;;;;44.15;24.52;;;20.90;99.90;;;;;;5025296;28;20117;-57
2023/09/10 07:29:05;;;;;;;40.27;25.90;;;21.00;99.90;;;;;;5014928;28;20049;-57
2023/09/10 07:31:33;;;;;;;36.75;23.30;;;21.10;99.90;;;;;;5004663;28;20038;-57
2023/09/10 07:33:58;;;;;;;42.03;23.25;;;21.10;99.90;;;;;;5008762;28;20113;-57
2023/09/10 07:36:24;;;;;;;39.03;23.60;;;21.30;99.90;;;;;;5009228;28;20393;-56
2023/09/10 07:38:49;;;;;;;89.22;60.03;;;21.40;99.90;;;;;;5024299;28;20489;-56
2023/09/10 07:41:15;;;;;;;60.42;43.70;;;21.40;99.90;;;;;;5021039;28;20428;-56
2023/09/10 07:43:41;;;;;;;39.72;24.65;;;21.50;99.90;;;;;;5024669;28;20045;-57
2023/09/10 07:46:06;;;;;;;38.67;22.55;;;21.50;99.90;;;;;;5030237;28;20045;-56
2023/09/10 07:48:32;;;;;;;31.23;21.70;;;21.60;99.90;;;;;;5028732;28;20151;-58
2023/09/10 07:50:58;;;;;;;36.38;21.23;;;21.70;99.90;;;;;;5008212;28;20042;-58
2023/09/10 07:53:24;;;;;;;36.28;20.50;;;21.90;99.90;;;;;;5003325;28;20133;-58
2023/09/10 07:55:50;;;;;;;30.63;19.85;;;;;;;;;;5008510;28;20038;-58
2023/09/10 07:58:16;;;;;;;38.78;20.42;;;22.00;99.90;;;;;;5006258;28;20064;-57
2023/09/10 08:00:41;;;;;;;33.92;20.92;;;22.20;99.90;;;;;;5005273;28;20116;-58
2023/09/10 08:03:07;;;;;;;36.88;20.70;;;22.10;99.90;;;;;;5002754;28;20038;-58
2023/09/10 08:05:34;;;;;;;36.75;20.05;;;22.40;99.90;;;;;;5004614;28;20041;-58
2023/09/10 08:08:02;;;;;;;28.23;18.30;;;22.30;99.90;;;;;;5005110;28;20136;-58
2023/09/10 08:10:32;;;;;;;27.92;17.85;;;22.40;99.90;;;;;;5003158;28;20069;-58
2023/09/10 08:12:59;;;;;;;30.65;17.52;;;;;;;;;;5005281;28;20751;-57
2023/09/10 08:15:27;;;;;;;30.38;18.33;;;22.60;99.90;;;;;;5007129;28;20037;-57
2023/09/10 08:17:57;;;;;;;32.42;17.17;;;;;;;;;;5011226;28;20876;-57
2023/09/10 08:20:24;;;;;;;36.10;17.10;;;;;;;;;;5014831;28;20065;-57
2023/09/10 08:22:51;;;;;;;32.80;15.00;;;;;;;;;;5011591;28;20113;-56
2023/09/10 08:25:18;;;;;;;29.73;16.50;;;;;;;;;;5016798;28;20043;-57
2023/09/10 08:27:45;;;;;;;36.60;16.25;;;;;;;;;;5007192;28;20137;-57
2023/09/10 08:30:12;;;;;;;26.17;15.05;;;;;;;;;;5005462;28;20054;-56
2023/09/10 08:32:40;;;;;;;33.78;16.17;;;;;;;;;;5011778;28;20516;-57
2023/09/10 08:35:07;;;;;;;33.08;14.82;;;;;;;;;;5000660;28;20060;-57
2023/09/10 08:37:33;;;;;;;29.88;14.70;;;;;;;;;;5004941;28;20655;-57
2023/09/10 08:39:59;;;;;;;32.13;14.80;;;;;;;;;;5004281;28;20034;-57
2023/09/10 08:42:30;;;;;;;29.75;14.20;;;;;;;;;;5000502;28;20018;-57
2023/09/10 08:45:02;;;;;;;27.95;14.65;;;;;;;;;;5014299;28;20136;-57
2023/09/10 08:47:31;;;;;;;54.40;37.33;;;;;;;;;;5026452;28;20033;-56
2023/09/10 08:50:01;;;;;;;28.48;14.50;;;;;;;;;;5023828;28;20032;-55
2023/09/10 08:52:27;;;;;;;22.58;13.98;;;;;;;;;;5022135;28;20045;-54
2023/09/10 08:54:53;;;;;;;25.77;14.30;;;;;;;;;;5026914;28;20164;-57
2023/09/10 08:57:19;;;;;;;25.80;14.10;;;;;;;;;;5021122;28;20045;-56
2023/09/10 08:59:48;;;;;;;27.95;13.63;;;;;;;;;;5025465;28;20052;-55
2023/09/10 09:02:14;;;;;;;23.27;13.68;;;;;;;;;;5022596;28;20037;-60
2023/09/10 09:04:40;;;;;;;26.13;13.30;;;;;;;;;;5004821;28;20373;-56
2023/09/10 09:07:09;;;;;;;32.25;12.85;;;;;;;;;;5005934;28;20046;-56
2023/09/10 09:09:39;;;;;;;25.50;12.43;;;;;;;;;;5007829;28;20030;-56
2023/09/10 09:12:06;;;;;;;22.88;12.23;;;;;;;;;;5006851;28;20034;-56
2023/09/10 09:14:32;;;;;;;24.08;11.90;;;;;;;;;;5002814;28;20064;-56
2023/09/10 09:16:58;;;;;;;21.20;11.40;;;;;;;;;;5011401;28;20040;-56
2023/09/10 09:19:28;;;;;;;25.08;11.77;;;;;;;;;;5001740;28;20486;-56
2023/09/10 09:21:55;;;;;;;24.45;11.77;;;;;;;;;;5003299;28;20128;-61
2023/09/10 09:24:22;;;;;;;22.02;11.63;;;;;;;;;;5008904;28;20408;-56
2023/09/10 09:26:50;;;;;;;24.27;11.90;;;;;;;;;;5014585;28;20033;-55
2023/09/10 09:29:16;;;;;;;33.47;12.98;;;;;;;;;;5007946;28;20387;-55
2023/09/10 09:31:42;;;;;;;27.70;12.07;;;;;;;;;;5002498;28;20478;-56
2023/09/10 09:34:08;;;;;;;21.75;11.13;;;;;;;;;;5017133;28;20037;-57
2023/09/10 09:36:36;;;;;;;25.20;11.82;;;;;;;;;;5001276;28;20041;-56
2023/09/10 09:39:07;;;;;;;29.10;12.52;;;24.90;99.90;;;;;;5006456;28;20066;-55
2023/09/10 09:41:35;;;;;;;30.42;13.40;;;25.00;99.90;;;;;;5001496;28;20249;-56
2023/09/10 09:44:02;;;;;;;20.55;12.23;;;25.10;99.90;;;;;;5003764;28;20084;-56
2023/09/10 09:46:32;;;;;;;23.30;11.98;;;;;;;;;;5007782;28;20044;-58
2023/09/10 09:48:59;;;;;;;22.30;12.18;;;;;;;;;;5001731;28;20337;-57
2023/09/10 09:51:27;;;;;;;23.35;12.18;;;;;;;;;;5002387;28;20041;-57
2023/09/10 09:53:55;;;;;;;31.50;13.15;;;;;;;;;;5005501;28;20042;-57
2023/09/10 09:56:23;;;;;;;25.77;11.60;;;;;;;;;;5009160;28;20395;-58
2023/09/10 09:58:50;;;;;;;31.63;13.05;;;;;;;;;;5034413;28;20053;-58
2023/09/10 10:01:21;;;;;;;21.58;11.93;;;;;;;;;;5015173;28;20033;-58
2023/09/10 10:03:49;;;;;;;21.35;11.27;;;;;;;;;;5009976;28;20450;-57
2023/09/10 10:06:17;;;;;;;26.90;11.90;;;;;;;;;;5018332;28;20437;-57
2023/09/10 10:08:48;;;;;;;18.88;10.93;;;;;;;;;;5048820;28;20041;-56
2023/09/10 10:11:15;;;;;;;30.73;11.20;;;;;;;;;;5021595;28;20033;-58
2023/09/10 10:13:41;;;;;;;23.58;10.88;;;;;;;;;;5021593;28;20187;-57
2023/09/10 10:16:07;;;;;;;22.08;10.32;;;25.70;99.90;;;;;;5013236;28;21371;-57
2023/09/10 10:18:33;;;;;;;33.63;10.00;;;25.90;99.90;;;;;;5015773;28;20044;-57
2023/09/10 10:21:00;;;;;;;22.27;9.43;;;25.90;99.90;;;;;;5019771;28;20125;-58
2023/09/10 10:23:27;;;;;;;27.42;10.40;;;25.90;99.90;;;;;;5028754;28;20041;-56
2023/09/10 10:25:53;;;;;;;26.95;9.40;;;25.90;99.90;;;;;;5024997;28;20544;-57
2023/09/10 10:28:22;;;;;;;27.17;11.13;;;;;;;;;;5020738;28;20500;-57
2023/09/10 10:31:18;;;;;;;26.73;10.18;;;;;;;;;;5019032;28;20040;-56
2023/09/10 10:34:06;;;;;;;21.05;9.82;;;;;;;;;;5014007;28;20389;-56
2023/09/10 10:36:54;;;;;;;25.50;9.65;;;;;;;;;;5022819;28;20034;-56
2023/09/10 10:39:26;;;;;;;21.42;10.77;;;;;;;;;;5009616;28;20038;-58
2023/09/10 10:41:55;;;;;;;24.38;10.20;;;;;;;;;;5022223;28;20141;-56
2023/09/10 10:44:26;;;;;;;18.45;9.10;;;;;;;;;;5029006;28;20052;-56
2023/09/10 10:46:58;;;;;;;18.35;9.50;;;;;;;;;;5023049;28;20449;-58
2023/09/10 10:49:26;;;;;;;24.08;10.20;;;;;;;;;;5022349;28;20111;-58
2023/09/10 10:51:58;;;;;;;20.60;9.50;;;26.00;99.90;;;;;;5017567;28;20041;-56
2023/09/10 10:54:24;;;;;;;25.27;14.63;;;26.20;99.90;;;;;;5049610;28;20179;-56
2023/09/10 10:56:51;;;;;;;22.00;10.27;;;26.20;99.90;;;;;;5018343;28;20063;-57
2023/09/10 10:59:18;;;;;;;18.98;10.48;;;26.30;99.90;;;;;;5018222;28;20111;-56
2023/09/10 11:02:10;;;;;;;22.63;10.07;;;26.30;99.90;;;;;;5026618;28;20055;-57
2023/09/10 11:04:36;;;;;;;20.55;9.80;;;26.40;99.90;;;;;;5018537;28;20142;-56
2023/09/10 11:07:20;;;;;;;22.77;9.98;;;26.40;99.90;;;;;;5034194;28;20068;-55
2023/09/10 11:09:47;;;;;;;25.60;10.35;;;26.50;99.90;;;;;;5026964;28;20045;-56
2023/09/10 11:12:13;;;;;;;22.83;10.18;;;26.50;99.90;;;;;;5025697;28;20107;-56
2023/09/10 11:14:58;;;;;;;19.25;10.10;;;26.50;99.90;;;;;;5058189;28;20479;-57
2023/09/10 11:17:25;;;;;;;23.40;10.52;;;26.60;99.90;;;;;;5027072;28;20048;-57
2023/09/10 11:19:50;;;;;;;18.13;10.63;;;26.70;99.90;;;;;;5029916;28;20045;-57
2023/09/10 11:22:16;;;;;;;20.80;10.82;;;26.80;99.90;;;;;;5024627;28;20471;-57
2023/09/10 11:24:42;;;;;;;18.58;10.75;;;26.80;99.90;;;;;;5032609;28;20037;-57
2023/09/10 11:27:22;;;;;;;23.85;11.07;;;26.80;99.90;;;;;;5028209;28;20029;-55
2023/09/10 11:30:07;;;;;;;26.08;10.63;;;26.70;99.90;;;;;;5026514;28;20135;-56
2023/09/10 11:32:32;;;;;;;16.85;10.57;;;26.70;99.90;;;;;;5022284;28;20134;-56
2023/09/10 11:35:16;;;;;;;18.05;10.00;;;26.90;99.90;;;;;;5029561;28;20429;-57
2023/09/10 11:37:46;;;;;;;28.70;10.65;;;26.90;99.90;;;;;;5026796;28;20041;-58
2023/09/10 11:40:13;;;;;;;25.33;10.55;;;27.00;99.90;;;;;;5024571;28;20095;-56
2023/09/10 11:42:42;;;;;;;23.50;10.73;;;27.00;99.90;;;;;;5024931;28;20037;-57
2023/09/10 11:45:09;;;;;;;20.60;10.57;;;27.00;99.90;;;;;;5024720;28;20637;-57
2023/09/10 11:47:35;;;;;;;27.67;10.52;;;27.00;99.90;;;;;;5023504;28;20045;-57
2023/09/10 11:50:04;;;;;;;22.27;10.25;;;27.10;99.90;;;;;;5024800;28;20041;-57
2023/09/10 11:52:30;;;;;;;19.20;9.43;;;27.10;99.90;;;;;;5030189;28;20473;-56
2023/09/10 11:54:57;;;;;;;23.08;9.93;;;27.10;99.90;;;;;;5023917;28;20107;-57
2023/09/10 11:57:23;;;;;;;17.10;10.07;;;27.10;99.90;;;;;;5022484;28;20038;-57
2023/09/10 11:59:50;;;;;;;22.35;8.90;;;27.30;99.90;;;;;;5023076;28;20216;-57
2023/09/10 12:02:16;;;;;;;24.05;9.60;;;27.30;99.90;;;;;;5023779;28;20060;-57
2023/09/10 12:04:42;;;;;;;17.02;9.35;;;27.30;99.90;;;;;;5023397;28;20040;-57
2023/09/10 12:07:07;;;;;;;18.70;8.90;;;27.40;99.90;;;;;;5024144;28;20030;-58
2023/09/10 12:09:33;;;;;;;18.55;9.65;;;27.30;99.90;;;;;;5022972;28;20032;-57
2023/09/10 12:12:09;;;;;;;20.90;9.45;;;27.40;99.90;;;;;;5025659;28;20468;-56
2023/09/10 12:14:36;;;;;;;25.58;9.88;;;27.40;99.90;;;;;;5021462;28;20036;-57
2023/09/10 12:17:02;;;;;;;23.88;9.77;;;27.40;99.90;;;;;;5023369;28;20408;-57
2023/09/10 12:19:28;;;;;;;22.33;9.88;;;27.40;99.90;;;;;;5023792;28;20528;-57
2023/09/10 12:21:55;;;;;;;17.77;9.38;;;28.00;99.90;;;;;;5022422;28;20038;-57
2023/09/10 12:24:21;;;;;;;29.20;9.50;;;27.70;99.90;;;;;;5023552;28;20029;-57
2023/09/10 12:26:47;;;;;;;20.42;8.68;;;27.60;99.90;;;;;;5028606;28;20512;-57
2023/09/10 12:29:13;;;;;;;18.08;8.65;;;27.50;99.90;;;;;;5021164;28;20544;-56
2023/09/10 12:31:40;;;;;;;19.65;9.60;;;27.50;99.90;;;;;;5022944;28;21071;-56
2023/09/10 12:34:09;;;;;;;16.58;8.55;;;27.50;99.90;;;;;;5022389;28;20480;-56
2023/09/10 12:36:35;;;;;;;14.45;8.90;;;27.50;99.90;;;;;;5055812;28;20124;-57
2023/09/10 12:39:01;;;;;;;18.00;8.80;;;27.70;99.90;;;;;;5022627;28;20045;-57
2023/09/10 12:41:26;;;;;;;15.27;8.30;;;27.60;99.90;;;;;;5022565;28;20029;-57
2023/09/10 12:43:53;;;;;;;19.23;8.43;;;27.60;99.90;;;;;;5022080;28;20034;-57
2023/09/10 12:46:19;;;;;;;16.60;8.50;;;27.60;99.90;;;;;;5022218;28;20029;-57